sensor_id;sensor_type;location;lat;lon;timestamp;P1;durP1;ratioP1;P2;durP2;ratioP2
39872;SDS011;25545;48.854;9.292;2022-08-19T00:01:58;16.17;;;14.38;;
39872;SDS011;25545;48.854;9.292;2022-08-19T00:04:29;20.05;;;14.27;;
39872;SDS011;25545;48.854;9.292;2022-08-19T00:06:59;14.48;;;12.98;;
39872;SDS011;25545;48.854;9.292;2022-08-19T00:09:26;14.88;;;13.48;;
39872;SDS011;25545;48.854;9.292;2022-08-19T00:11:53;16.45;;;13.95;;
39872;SDS011;25545;48.854;9.292;2022-08-19T00:14:22;15.25;;;13.63;;
39872;SDS011;25545;48.854;9.292;2022-08-19T00:16:50;15.30;;;13.63;;
39872;SDS011;25545;48.854;9.292;2022-08-19T00:19:20;15.85;;;14.25;;
39872;SDS011;25545;48.854;9.292;2022-08-19T00:21:48;14.77;;;13.27;;
39872;SDS011;25545;48.854;9.292;2022-08-19T00:24:15;16.15;;;14.35;;
39872;SDS011;25545;48.854;9.292;2022-08-19T00:26:42;18.33;;;15.60;;
39872;SDS011;25545;48.854;9.292;2022-08-19T00:29:10;17.58;;;14.55;;
39872;SDS011;25545;48.854;9.292;2022-08-19T00:31:38;18.23;;;14.98;;
39872;SDS011;25545;48.854;9.292;2022-08-19T00:34:05;16.15;;;14.32;;
39872;SDS011;25545;48.854;9.292;2022-08-19T00:36:32;17.23;;;15.27;;
39872;SDS011;25545;48.854;9.292;2022-08-19T00:38:59;17.83;;;15.00;;
39872;SDS011;25545;48.854;9.292;2022-08-19T00:41:26;16.65;;;14.10;;
39872;SDS011;25545;48.854;9.292;2022-08-19T00:43:57;20.17;;;15.98;;
39872;SDS011;25545;48.854;9.292;2022-08-19T00:46:29;18.73;;;16.02;;
39872;SDS011;25545;48.854;9.292;2022-08-19T00:48:57;21.65;;;16.27;;
39872;SDS011;25545;48.854;9.292;2022-08-19T00:51:26;19.17;;;15.98;;
39872;SDS011;25545;48.854;9.292;2022-08-19T00:53:54;17.67;;;14.73;;
39872;SDS011;25545;48.854;9.292;2022-08-19T00:56:22;19.35;;;16.02;;
39872;SDS011;25545;48.854;9.292;2022-08-19T00:58:49;18.10;;;16.13;;
39872;SDS011;25545;48.854;9.292;2022-08-19T01:01:16;18.02;;;15.90;;
39872;SDS011;25545;48.854;9.292;2022-08-19T01:03:42;21.38;;;14.90;;
39872;SDS011;25545;48.854;9.292;2022-08-19T01:06:25;17.02;;;15.23;;
39872;SDS011;25545;48.854;9.292;2022-08-19T01:08:53;20.40;;;16.02;;
39872;SDS011;25545;48.854;9.292;2022-08-19T01:11:20;16.90;;;15.00;;
39872;SDS011;25545;48.854;9.292;2022-08-19T01:13:47;19.73;;;16.85;;
39872;SDS011;25545;48.854;9.292;2022-08-19T01:16:16;18.80;;;15.82;;
39872;SDS011;25545;48.854;9.292;2022-08-19T01:18:44;18.98;;;15.55;;
39872;SDS011;25545;48.854;9.292;2022-08-19T01:21:17;20.35;;;15.25;;
39872;SDS011;25545;48.854;9.292;2022-08-19T01:24:10;18.17;;;14.25;;
39872;SDS011;25545;48.854;9.292;2022-08-19T01:26:40;16.55;;;14.73;;
39872;SDS011;25545;48.854;9.292;2022-08-19T01:31:35;18.23;;;15.68;;
39872;SDS011;25545;48.854;9.292;2022-08-19T01:34:03;19.35;;;17.05;;
39872;SDS011;25545;48.854;9.292;2022-08-19T01:36:32;18.00;;;15.30;;
39872;SDS011;25545;48.854;9.292;2022-08-19T01:39:01;21.25;;;16.25;;
39872;SDS011;25545;48.854;9.292;2022-08-19T01:41:30;19.80;;;14.85;;
39872;SDS011;25545;48.854;9.292;2022-08-19T01:43:57;17.67;;;15.88;;
39872;SDS011;25545;48.854;9.292;2022-08-19T01:46:44;18.77;;;15.35;;
39872;SDS011;25545;48.854;9.292;2022-08-19T01:49:13;21.08;;;15.15;;
39872;SDS011;25545;48.854;9.292;2022-08-19T01:51:40;17.30;;;15.45;;
39872;SDS011;25545;48.854;9.292;2022-08-19T01:54:08;18.00;;;16.00;;
39872;SDS011;25545;48.854;9.292;2022-08-19T01:56:35;17.50;;;15.23;;
39872;SDS011;25545;48.854;9.292;2022-08-19T01:59:03;17.88;;;16.02;;
39872;SDS011;25545;48.854;9.292;2022-08-19T02:01:33;22.15;;;15.88;;
39872;SDS011;25545;48.854;9.292;2022-08-19T02:04:01;17.55;;;15.73;;
39872;SDS011;25545;48.854;9.292;2022-08-19T02:06:28;18.77;;;16.02;;
39872;SDS011;25545;48.854;9.292;2022-08-19T02:08:55;17.67;;;15.77;;
39872;SDS011;25545;48.854;9.292;2022-08-19T02:11:24;19.77;;;16.00;;
39872;SDS011;25545;48.854;9.292;2022-08-19T02:13:53;20.98;;;16.58;;
39872;SDS011;25545;48.854;9.292;2022-08-19T02:16:21;19.08;;;16.30;;
39872;SDS011;25545;48.854;9.292;2022-08-19T02:18:48;20.20;;;17.15;;
39872;SDS011;25545;48.854;9.292;2022-08-19T02:21:15;21.15;;;16.75;;
39872;SDS011;25545;48.854;9.292;2022-08-19T02:23:43;19.45;;;16.77;;
39872;SDS011;25545;48.854;9.292;2022-08-19T02:26:10;22.30;;;17.20;;
39872;SDS011;25545;48.854;9.292;2022-08-19T02:28:37;22.23;;;17.85;;
39872;SDS011;25545;48.854;9.292;2022-08-19T02:31:07;24.33;;;19.00;;
39872;SDS011;25545;48.854;9.292;2022-08-19T02:33:36;21.08;;;16.90;;
39872;SDS011;25545;48.854;9.292;2022-08-19T02:36:03;21.65;;;17.70;;
39872;SDS011;25545;48.854;9.292;2022-08-19T02:38:31;26.00;;;19.30;;
39872;SDS011;25545;48.854;9.292;2022-08-19T02:41:02;22.48;;;18.35;;
39872;SDS011;25545;48.854;9.292;2022-08-19T02:43:33;23.13;;;18.67;;
39872;SDS011;25545;48.854;9.292;2022-08-19T02:46:23;28.23;;;20.77;;
39872;SDS011;25545;48.854;9.292;2022-08-19T02:48:54;25.92;;;21.25;;
39872;SDS011;25545;48.854;9.292;2022-08-19T02:51:23;26.17;;;19.02;;
39872;SDS011;25545;48.854;9.292;2022-08-19T02:53:52;26.98;;;19.80;;
39872;SDS011;25545;48.854;9.292;2022-08-19T02:56:19;27.80;;;20.35;;
39872;SDS011;25545;48.854;9.292;2022-08-19T02:58:46;27.35;;;20.42;;
39872;SDS011;25545;48.854;9.292;2022-08-19T03:01:22;22.85;;;18.65;;
39872;SDS011;25545;48.854;9.292;2022-08-19T03:03:53;25.50;;;20.02;;
39872;SDS011;25545;48.854;9.292;2022-08-19T03:06:21;27.58;;;21.58;;
39872;SDS011;25545;48.854;9.292;2022-08-19T03:08:48;29.15;;;20.95;;
39872;SDS011;25545;48.854;9.292;2022-08-19T03:11:19;26.33;;;20.48;;
39872;SDS011;25545;48.854;9.292;2022-08-19T03:13:48;25.73;;;20.27;;
39872;SDS011;25545;48.854;9.292;2022-08-19T03:16:21;27.52;;;20.90;;
39872;SDS011;25545;48.854;9.292;2022-08-19T03:18:50;29.35;;;21.20;;
39872;SDS011;25545;48.854;9.292;2022-08-19T03:21:23;24.80;;;20.00;;
39872;SDS011;25545;48.854;9.292;2022-08-19T03:23:53;26.60;;;21.02;;
39872;SDS011;25545;48.854;9.292;2022-08-19T03:26:20;25.30;;;19.92;;
39872;SDS011;25545;48.854;9.292;2022-08-19T03:28:47;26.95;;;21.02;;
39872;SDS011;25545;48.854;9.292;2022-08-19T03:31:23;26.35;;;20.63;;
39872;SDS011;25545;48.854;9.292;2022-08-19T03:34:11;29.50;;;20.75;;
39872;SDS011;25545;48.854;9.292;2022-08-19T03:36:40;24.58;;;18.60;;
39872;SDS011;25545;48.854;9.292;2022-08-19T03:39:07;24.27;;;18.55;;
39872;SDS011;25545;48.854;9.292;2022-08-19T03:41:39;25.38;;;20.52;;
39872;SDS011;25545;48.854;9.292;2022-08-19T03:44:12;29.02;;;22.23;;
39872;SDS011;25545;48.854;9.292;2022-08-19T03:46:43;29.67;;;21.83;;
39872;SDS011;25545;48.854;9.292;2022-08-19T03:49:10;28.70;;;21.13;;
39872;SDS011;25545;48.854;9.292;2022-08-19T03:51:40;29.13;;;21.58;;
39872;SDS011;25545;48.854;9.292;2022-08-19T03:54:09;29.88;;;22.05;;
39872;SDS011;25545;48.854;9.292;2022-08-19T03:56:38;31.13;;;22.58;;
39872;SDS011;25545;48.854;9.292;2022-08-19T03:59:06;26.10;;;21.30;;
39872;SDS011;25545;48.854;9.292;2022-08-19T04:01:34;27.63;;;21.23;;
39872;SDS011;25545;48.854;9.292;2022-08-19T04:04:01;27.65;;;21.23;;
39872;SDS011;25545;48.854;9.292;2022-08-19T04:06:31;29.10;;;21.95;;
39872;SDS011;25545;48.854;9.292;2022-08-19T04:09:00;26.70;;;20.77;;
39872;SDS011;25545;48.854;9.292;2022-08-19T04:11:31;25.65;;;21.17;;
39872;SDS011;25545;48.854;9.292;2022-08-19T04:14:13;28.38;;;23.40;;
39872;SDS011;25545;48.854;9.292;2022-08-19T04:16:42;28.40;;;22.60;;
39872;SDS011;25545;48.854;9.292;2022-08-19T04:19:10;26.50;;;21.50;;
39872;SDS011;25545;48.854;9.292;2022-08-19T04:21:38;27.95;;;22.15;;
39872;SDS011;25545;48.854;9.292;2022-08-19T04:24:04;28.20;;;22.50;;
39872;SDS011;25545;48.854;9.292;2022-08-19T04:26:34;28.95;;;23.15;;
39872;SDS011;25545;48.854;9.292;2022-08-19T04:29:04;29.55;;;22.75;;
39872;SDS011;25545;48.854;9.292;2022-08-19T04:31:39;28.83;;;24.15;;
39872;SDS011;25545;48.854;9.292;2022-08-19T04:34:08;31.10;;;23.75;;
39872;SDS011;25545;48.854;9.292;2022-08-19T04:36:39;27.48;;;23.48;;
39872;SDS011;25545;48.854;9.292;2022-08-19T04:39:09;29.13;;;23.58;;
39872;SDS011;25545;48.854;9.292;2022-08-19T04:41:37;31.65;;;23.65;;
39872;SDS011;25545;48.854;9.292;2022-08-19T04:44:22;29.33;;;23.25;;
39872;SDS011;25545;48.854;9.292;2022-08-19T04:46:49;33.85;;;23.55;;
39872;SDS011;25545;48.854;9.292;2022-08-19T04:49:18;30.33;;;24.27;;
39872;SDS011;25545;48.854;9.292;2022-08-19T04:51:48;34.50;;;24.85;;
39872;SDS011;25545;48.854;9.292;2022-08-19T04:54:16;30.02;;;24.65;;
39872;SDS011;25545;48.854;9.292;2022-08-19T04:57:03;32.70;;;23.88;;
39872;SDS011;25545;48.854;9.292;2022-08-19T04:59:32;30.50;;;24.90;;
39872;SDS011;25545;48.854;9.292;2022-08-19T05:01:59;34.78;;;26.02;;
39872;SDS011;25545;48.854;9.292;2022-08-19T05:04:26;30.50;;;24.95;;
39872;SDS011;25545;48.854;9.292;2022-08-19T05:06:58;31.50;;;24.73;;
39872;SDS011;25545;48.854;9.292;2022-08-19T05:09:27;32.35;;;25.90;;
39872;SDS011;25545;48.854;9.292;2022-08-19T05:12:14;32.00;;;24.73;;
39872;SDS011;25545;48.854;9.292;2022-08-19T05:14:41;32.53;;;26.08;;
39872;SDS011;25545;48.854;9.292;2022-08-19T05:17:08;32.88;;;26.17;;
39872;SDS011;25545;48.854;9.292;2022-08-19T05:19:53;33.70;;;25.70;;
39872;SDS011;25545;48.854;9.292;2022-08-19T05:22:39;31.38;;;24.85;;
39872;SDS011;25545;48.854;9.292;2022-08-19T05:25:08;32.88;;;25.75;;
39872;SDS011;25545;48.854;9.292;2022-08-19T05:30:06;32.00;;;24.13;;
39872;SDS011;25545;48.854;9.292;2022-08-19T05:32:33;28.48;;;23.88;;
39872;SDS011;25545;48.854;9.292;2022-08-19T05:35:00;30.15;;;24.95;;
39872;SDS011;25545;48.854;9.292;2022-08-19T05:37:26;27.67;;;22.73;;
39872;SDS011;25545;48.854;9.292;2022-08-19T05:39:54;30.40;;;24.27;;
39872;SDS011;25545;48.854;9.292;2022-08-19T05:42:22;35.22;;;25.13;;
39872;SDS011;25545;48.854;9.292;2022-08-19T05:44:49;30.95;;;24.55;;
39872;SDS011;25545;48.854;9.292;2022-08-19T05:47:17;27.35;;;22.65;;
39872;SDS011;25545;48.854;9.292;2022-08-19T05:49:46;35.35;;;26.52;;
39872;SDS011;25545;48.854;9.292;2022-08-19T05:52:14;32.03;;;24.77;;
39872;SDS011;25545;48.854;9.292;2022-08-19T05:54:44;29.95;;;24.15;;
39872;SDS011;25545;48.854;9.292;2022-08-19T05:59:44;31.95;;;24.20;;
39872;SDS011;25545;48.854;9.292;2022-08-19T06:02:12;28.95;;;24.00;;
39872;SDS011;25545;48.854;9.292;2022-08-19T06:04:40;31.65;;;25.23;;
39872;SDS011;25545;48.854;9.292;2022-08-19T06:07:09;34.60;;;25.77;;
39872;SDS011;25545;48.854;9.292;2022-08-19T06:09:38;34.42;;;25.08;;
39872;SDS011;25545;48.854;9.292;2022-08-19T06:12:05;33.10;;;26.42;;
39872;SDS011;25545;48.854;9.292;2022-08-19T06:14:34;32.88;;;25.02;;
39872;SDS011;25545;48.854;9.292;2022-08-19T06:17:07;31.63;;;24.17;;
39872;SDS011;25545;48.854;9.292;2022-08-19T06:19:33;29.40;;;25.13;;
39872;SDS011;25545;48.854;9.292;2022-08-19T06:22:06;32.70;;;26.58;;
39872;SDS011;25545;48.854;9.292;2022-08-19T06:24:34;32.83;;;24.98;;
39872;SDS011;25545;48.854;9.292;2022-08-19T06:27:01;30.45;;;24.77;;
39872;SDS011;25545;48.854;9.292;2022-08-19T06:29:31;30.50;;;25.08;;
39872;SDS011;25545;48.854;9.292;2022-08-19T06:31:59;31.92;;;26.50;;
39872;SDS011;25545;48.854;9.292;2022-08-19T06:34:27;28.95;;;25.67;;
39872;SDS011;25545;48.854;9.292;2022-08-19T06:36:55;35.45;;;26.55;;
39872;SDS011;25545;48.854;9.292;2022-08-19T06:39:26;30.88;;;25.98;;
39872;SDS011;25545;48.854;9.292;2022-08-19T06:44:29;33.92;;;26.27;;
39872;SDS011;25545;48.854;9.292;2022-08-19T06:47:08;36.35;;;27.50;;
39872;SDS011;25545;48.854;9.292;2022-08-19T06:49:40;32.95;;;27.63;;
39872;SDS011;25545;48.854;9.292;2022-08-19T06:52:07;31.23;;;26.58;;
39872;SDS011;25545;48.854;9.292;2022-08-19T06:54:39;37.80;;;28.75;;
39872;SDS011;25545;48.854;9.292;2022-08-19T06:57:22;32.65;;;26.52;;
39872;SDS011;25545;48.854;9.292;2022-08-19T06:59:50;33.17;;;26.70;;
39872;SDS011;25545;48.854;9.292;2022-08-19T07:02:17;35.42;;;28.25;;
39872;SDS011;25545;48.854;9.292;2022-08-19T07:04:49;30.85;;;27.13;;
39872;SDS011;25545;48.854;9.292;2022-08-19T07:07:18;32.10;;;26.10;;
39872;SDS011;25545;48.854;9.292;2022-08-19T07:09:47;34.08;;;26.60;;
39872;SDS011;25545;48.854;9.292;2022-08-19T07:12:24;30.65;;;25.65;;
39872;SDS011;25545;48.854;9.292;2022-08-19T07:14:51;31.23;;;25.63;;
39872;SDS011;25545;48.854;9.292;2022-08-19T07:17:19;32.25;;;26.42;;
39872;SDS011;25545;48.854;9.292;2022-08-19T07:19:47;29.23;;;25.55;;
39872;SDS011;25545;48.854;9.292;2022-08-19T07:22:14;36.63;;;25.77;;
39872;SDS011;25545;48.854;9.292;2022-08-19T07:24:42;32.55;;;26.70;;
39872;SDS011;25545;48.854;9.292;2022-08-19T07:27:17;32.30;;;26.35;;
39872;SDS011;25545;48.854;9.292;2022-08-19T07:29:51;26.77;;;23.15;;
39872;SDS011;25545;48.854;9.292;2022-08-19T07:32:23;31.70;;;26.02;;
39872;SDS011;25545;48.854;9.292;2022-08-19T07:34:52;28.38;;;24.38;;
39872;SDS011;25545;48.854;9.292;2022-08-19T07:37:19;31.50;;;23.85;;
39872;SDS011;25545;48.854;9.292;2022-08-19T07:39:46;27.80;;;23.27;;
39872;SDS011;25545;48.854;9.292;2022-08-19T07:42:13;28.50;;;24.27;;
39872;SDS011;25545;48.854;9.292;2022-08-19T07:44:40;27.35;;;23.08;;
39872;SDS011;25545;48.854;9.292;2022-08-19T07:47:15;29.80;;;24.00;;
39872;SDS011;25545;48.854;9.292;2022-08-19T07:50:05;29.80;;;24.45;;
39872;SDS011;25545;48.854;9.292;2022-08-19T07:52:33;31.75;;;23.55;;
39872;SDS011;25545;48.854;9.292;2022-08-19T07:55:03;30.08;;;22.55;;
39872;SDS011;25545;48.854;9.292;2022-08-19T07:57:30;27.48;;;23.17;;
39872;SDS011;25545;48.854;9.292;2022-08-19T07:59:57;28.00;;;21.85;;
39872;SDS011;25545;48.854;9.292;2022-08-19T08:02:25;27.60;;;21.63;;
39872;SDS011;25545;48.854;9.292;2022-08-19T08:04:51;22.98;;;20.02;;
39872;SDS011;25545;48.854;9.292;2022-08-19T08:07:37;25.75;;;21.23;;
39872;SDS011;25545;48.854;9.292;2022-08-19T08:10:22;26.30;;;21.38;;
39872;SDS011;25545;48.854;9.292;2022-08-19T08:12:49;25.60;;;19.90;;
39872;SDS011;25545;48.854;9.292;2022-08-19T08:15:36;24.92;;;20.83;;
39872;SDS011;25545;48.854;9.292;2022-08-19T08:18:09;27.25;;;19.73;;
39872;SDS011;25545;48.854;9.292;2022-08-19T08:20:36;26.27;;;20.30;;
39872;SDS011;25545;48.854;9.292;2022-08-19T08:23:03;24.30;;;20.15;;
39872;SDS011;25545;48.854;9.292;2022-08-19T08:25:48;22.80;;;19.17;;
39872;SDS011;25545;48.854;9.292;2022-08-19T08:28:16;24.85;;;19.65;;
39872;SDS011;25545;48.854;9.292;2022-08-19T08:30:43;29.15;;;19.90;;
39872;SDS011;25545;48.854;9.292;2022-08-19T08:33:21;24.17;;;19.48;;
39872;SDS011;25545;48.854;9.292;2022-08-19T08:36:06;27.48;;;19.92;;
39872;SDS011;25545;48.854;9.292;2022-08-19T08:38:33;23.90;;;19.88;;
39872;SDS011;25545;48.854;9.292;2022-08-19T08:41:09;26.08;;;21.15;;
39872;SDS011;25545;48.854;9.292;2022-08-19T08:43:46;26.10;;;20.58;;
39872;SDS011;25545;48.854;9.292;2022-08-19T08:46:27;24.15;;;20.77;;
39872;SDS011;25545;48.854;9.292;2022-08-19T08:51:50;28.42;;;20.92;;
39872;SDS011;25545;48.854;9.292;2022-08-19T08:54:25;26.75;;;21.35;;
39872;SDS011;25545;48.854;9.292;2022-08-19T08:57:07;33.33;;;22.85;;
39872;SDS011;25545;48.854;9.292;2022-08-19T08:59:40;26.90;;;22.15;;
39872;SDS011;25545;48.854;9.292;2022-08-19T09:02:08;29.23;;;23.33;;
39872;SDS011;25545;48.854;9.292;2022-08-19T09:04:36;26.52;;;23.67;;
39872;SDS011;25545;48.854;9.292;2022-08-19T09:07:22;27.90;;;23.50;;
39872;SDS011;25545;48.854;9.292;2022-08-19T09:10:02;30.75;;;24.75;;
39872;SDS011;25545;48.854;9.292;2022-08-19T09:12:48;33.38;;;25.63;;
39872;SDS011;25545;48.854;9.292;2022-08-19T09:15:28;32.53;;;26.58;;
39872;SDS011;25545;48.854;9.292;2022-08-19T09:18:02;30.23;;;25.40;;
39872;SDS011;25545;48.854;9.292;2022-08-19T09:20:32;34.17;;;26.92;;
39872;SDS011;25545;48.854;9.292;2022-08-19T09:22:59;31.02;;;26.80;;
39872;SDS011;25545;48.854;9.292;2022-08-19T09:25:25;33.28;;;26.15;;
39872;SDS011;25545;48.854;9.292;2022-08-19T09:27:55;34.35;;;27.02;;
39872;SDS011;25545;48.854;9.292;2022-08-19T09:30:31;37.92;;;27.15;;
39872;SDS011;25545;48.854;9.292;2022-08-19T09:33:00;38.28;;;27.63;;
39872;SDS011;25545;48.854;9.292;2022-08-19T09:35:28;33.00;;;27.42;;
39872;SDS011;25545;48.854;9.292;2022-08-19T09:37:56;34.70;;;27.92;;
39872;SDS011;25545;48.854;9.292;2022-08-19T09:40:26;36.38;;;29.15;;
39872;SDS011;25545;48.854;9.292;2022-08-19T09:42:56;39.20;;;29.20;;
39872;SDS011;25545;48.854;9.292;2022-08-19T09:45:24;38.92;;;30.17;;
39872;SDS011;25545;48.854;9.292;2022-08-19T09:47:51;39.00;;;28.95;;
39872;SDS011;25545;48.854;9.292;2022-08-19T09:50:20;38.70;;;30.15;;
39872;SDS011;25545;48.854;9.292;2022-08-19T09:52:48;41.40;;;30.63;;
39872;SDS011;25545;48.854;9.292;2022-08-19T09:55:22;40.67;;;29.45;;
39872;SDS011;25545;48.854;9.292;2022-08-19T09:57:56;39.97;;;30.17;;
39872;SDS011;25545;48.854;9.292;2022-08-19T10:00:23;42.22;;;31.77;;
39872;SDS011;25545;48.854;9.292;2022-08-19T10:02:49;39.65;;;32.20;;
39872;SDS011;25545;48.854;9.292;2022-08-19T10:05:18;37.72;;;31.27;;
39872;SDS011;25545;48.854;9.292;2022-08-19T10:08:07;39.17;;;30.27;;
39872;SDS011;25545;48.854;9.292;2022-08-19T10:10:40;44.70;;;32.63;;
39872;SDS011;25545;48.854;9.292;2022-08-19T10:13:13;40.85;;;31.27;;
39872;SDS011;25545;48.854;9.292;2022-08-19T10:15:41;42.80;;;32.03;;
39872;SDS011;25545;48.854;9.292;2022-08-19T10:18:13;43.38;;;32.28;;
39872;SDS011;25545;48.854;9.292;2022-08-19T10:20:42;44.78;;;32.45;;
39872;SDS011;25545;48.854;9.292;2022-08-19T10:23:09;42.38;;;33.50;;
39872;SDS011;25545;48.854;9.292;2022-08-19T10:25:36;43.95;;;32.78;;
39872;SDS011;25545;48.854;9.292;2022-08-19T10:28:03;42.50;;;31.65;;
39872;SDS011;25545;48.854;9.292;2022-08-19T10:30:36;39.63;;;30.95;;
39872;SDS011;25545;48.854;9.292;2022-08-19T10:33:03;40.35;;;30.90;;
39872;SDS011;25545;48.854;9.292;2022-08-19T10:35:36;40.13;;;31.05;;
39872;SDS011;25545;48.854;9.292;2022-08-19T10:38:22;40.67;;;30.70;;
39872;SDS011;25545;48.854;9.292;2022-08-19T10:40:57;42.28;;;31.48;;
39872;SDS011;25545;48.854;9.292;2022-08-19T10:43:24;49.90;;;30.27;;
39872;SDS011;25545;48.854;9.292;2022-08-19T10:45:51;36.50;;;30.10;;
39872;SDS011;25545;48.854;9.292;2022-08-19T10:48:21;43.90;;;31.80;;
39872;SDS011;25545;48.854;9.292;2022-08-19T10:50:48;37.05;;;29.67;;
39872;SDS011;25545;48.854;9.292;2022-08-19T10:53:33;38.08;;;28.73;;
39872;SDS011;25545;48.854;9.292;2022-08-19T10:56:01;32.75;;;27.88;;
39872;SDS011;25545;48.854;9.292;2022-08-19T10:58:46;40.45;;;29.45;;
39872;SDS011;25545;48.854;9.292;2022-08-19T11:01:13;34.47;;;28.38;;
39872;SDS011;25545;48.854;9.292;2022-08-19T11:03:40;34.17;;;27.95;;
39872;SDS011;25545;48.854;9.292;2022-08-19T11:06:07;28.35;;;25.15;;
39872;SDS011;25545;48.854;9.292;2022-08-19T11:08:35;30.67;;;26.92;;
39872;SDS011;25545;48.854;9.292;2022-08-19T11:11:04;32.85;;;25.65;;
39872;SDS011;25545;48.854;9.292;2022-08-19T11:13:32;31.65;;;25.90;;
39872;SDS011;25545;48.854;9.292;2022-08-19T11:16:05;28.77;;;25.05;;
39872;SDS011;25545;48.854;9.292;2022-08-19T11:18:37;29.40;;;24.25;;
39872;SDS011;25545;48.854;9.292;2022-08-19T11:21:06;28.60;;;23.95;;
39872;SDS011;25545;48.854;9.292;2022-08-19T11:23:37;31.52;;;24.77;;
39872;SDS011;25545;48.854;9.292;2022-08-19T11:26:03;27.13;;;22.23;;
39872;SDS011;25545;48.854;9.292;2022-08-19T11:28:30;22.58;;;19.05;;
39872;SDS011;25545;48.854;9.292;2022-08-19T11:30:57;27.25;;;21.58;;
39872;SDS011;25545;48.854;9.292;2022-08-19T11:33:24;25.17;;;20.77;;
39872;SDS011;25545;48.854;9.292;2022-08-19T11:35:52;21.98;;;18.85;;
39872;SDS011;25545;48.854;9.292;2022-08-19T11:38:20;20.63;;;18.48;;
39872;SDS011;25545;48.854;9.292;2022-08-19T11:40:53;25.08;;;19.85;;
39872;SDS011;25545;48.854;9.292;2022-08-19T11:43:27;25.30;;;19.55;;
39872;SDS011;25545;48.854;9.292;2022-08-19T11:45:54;22.98;;;20.13;;
39872;SDS011;25545;48.854;9.292;2022-08-19T11:48:22;22.70;;;19.40;;
39872;SDS011;25545;48.854;9.292;2022-08-19T11:50:49;21.63;;;19.00;;
39872;SDS011;25545;48.854;9.292;2022-08-19T11:53:17;23.77;;;19.98;;
39872;SDS011;25545;48.854;9.292;2022-08-19T11:55:45;20.35;;;18.35;;
39872;SDS011;25545;48.854;9.292;2022-08-19T11:58:13;21.15;;;18.80;;
39872;SDS011;25545;48.854;9.292;2022-08-19T12:00:44;24.10;;;17.47;;
39872;SDS011;25545;48.854;9.292;2022-08-19T12:03:14;17.90;;;15.68;;
39872;SDS011;25545;48.854;9.292;2022-08-19T12:05:41;18.90;;;16.85;;
39872;SDS011;25545;48.854;9.292;2022-08-19T12:08:08;17.70;;;15.23;;
39872;SDS011;25545;48.854;9.292;2022-08-19T12:10:35;16.05;;;14.35;;
39872;SDS011;25545;48.854;9.292;2022-08-19T12:13:02;16.02;;;13.27;;
39872;SDS011;25545;48.854;9.292;2022-08-19T12:15:29;17.63;;;13.18;;
39872;SDS011;25545;48.854;9.292;2022-08-19T12:18:03;14.38;;;12.93;;
39872;SDS011;25545;48.854;9.292;2022-08-19T12:20:30;14.90;;;13.43;;
39872;SDS011;25545;48.854;9.292;2022-08-19T12:23:00;14.82;;;13.43;;
39872;SDS011;25545;48.854;9.292;2022-08-19T12:25:27;13.95;;;12.55;;
39872;SDS011;25545;48.854;9.292;2022-08-19T12:27:54;14.57;;;12.93;;
39872;SDS011;25545;48.854;9.292;2022-08-19T12:30:23;14.45;;;12.95;;
39872;SDS011;25545;48.854;9.292;2022-08-19T12:32:50;14.57;;;13.18;;
39872;SDS011;25545;48.854;9.292;2022-08-19T12:35:17;14.18;;;12.68;;
39872;SDS011;25545;48.854;9.292;2022-08-19T12:37:47;14.93;;;12.95;;
39872;SDS011;25545;48.854;9.292;2022-08-19T12:40:23;14.98;;;12.90;;
39872;SDS011;25545;48.854;9.292;2022-08-19T12:42:52;15.05;;;12.70;;
39872;SDS011;25545;48.854;9.292;2022-08-19T12:45:19;14.07;;;12.32;;
39872;SDS011;25545;48.854;9.292;2022-08-19T12:47:47;15.50;;;13.90;;
39872;SDS011;25545;48.854;9.292;2022-08-19T12:50:20;31.30;;;26.42;;
39872;SDS011;25545;48.854;9.292;2022-08-19T12:52:47;33.90;;;27.30;;
39872;SDS011;25545;48.854;9.292;2022-08-19T12:55:15;33.58;;;28.45;;
39872;SDS011;25545;48.854;9.292;2022-08-19T12:57:42;32.80;;;28.13;;
39872;SDS011;25545;48.854;9.292;2022-08-19T13:00:10;37.28;;;27.55;;
39872;SDS011;25545;48.854;9.292;2022-08-19T13:02:43;34.03;;;28.95;;
39872;SDS011;25545;48.854;9.292;2022-08-19T13:05:15;44.20;;;32.08;;
39872;SDS011;25545;48.854;9.292;2022-08-19T13:07:47;36.33;;;28.63;;
39872;SDS011;25545;48.854;9.292;2022-08-19T13:10:14;40.83;;;30.88;;
39872;SDS011;25545;48.854;9.292;2022-08-19T13:12:47;40.22;;;32.22;;
39872;SDS011;25545;48.854;9.292;2022-08-19T13:15:15;37.42;;;30.90;;
39872;SDS011;25545;48.854;9.292;2022-08-19T13:17:50;39.35;;;31.55;;
39872;SDS011;25545;48.854;9.292;2022-08-19T13:20:18;39.80;;;30.40;;
39872;SDS011;25545;48.854;9.292;2022-08-19T13:22:46;38.45;;;29.05;;
39872;SDS011;25545;48.854;9.292;2022-08-19T13:25:14;40.65;;;30.77;;
39872;SDS011;25545;48.854;9.292;2022-08-19T13:27:43;46.45;;;34.85;;
39872;SDS011;25545;48.854;9.292;2022-08-19T13:30:10;38.00;;;33.13;;
39872;SDS011;25545;48.854;9.292;2022-08-19T13:32:57;43.38;;;32.60;;
39872;SDS011;25545;48.854;9.292;2022-08-19T13:35:43;38.90;;;30.92;;
39872;SDS011;25545;48.854;9.292;2022-08-19T13:38:18;37.22;;;30.95;;
39872;SDS011;25545;48.854;9.292;2022-08-19T13:40:47;44.53;;;34.15;;
39872;SDS011;25545;48.854;9.292;2022-08-19T13:43:15;51.63;;;37.50;;
39872;SDS011;25545;48.854;9.292;2022-08-19T13:45:49;49.58;;;36.50;;
39872;SDS011;25545;48.854;9.292;2022-08-19T13:48:19;51.50;;;37.63;;
39872;SDS011;25545;48.854;9.292;2022-08-19T13:50:46;49.15;;;37.15;;
39872;SDS011;25545;48.854;9.292;2022-08-19T13:53:14;45.40;;;35.38;;
39872;SDS011;25545;48.854;9.292;2022-08-19T13:55:42;50.13;;;38.10;;
39872;SDS011;25545;48.854;9.292;2022-08-19T13:58:09;49.45;;;37.95;;
39872;SDS011;25545;48.854;9.292;2022-08-19T14:00:39;51.05;;;36.88;;
39872;SDS011;25545;48.854;9.292;2022-08-19T14:03:07;48.80;;;38.70;;
39872;SDS011;25545;48.854;9.292;2022-08-19T14:05:35;52.30;;;37.75;;
39872;SDS011;25545;48.854;9.292;2022-08-19T14:08:01;52.38;;;39.63;;
39872;SDS011;25545;48.854;9.292;2022-08-19T14:10:28;50.65;;;38.38;;
39872;SDS011;25545;48.854;9.292;2022-08-19T14:12:59;51.03;;;39.20;;
39872;SDS011;25545;48.854;9.292;2022-08-19T14:15:27;48.47;;;38.60;;
39872;SDS011;25545;48.854;9.292;2022-08-19T14:17:54;55.15;;;39.97;;
39872;SDS011;25545;48.854;9.292;2022-08-19T14:20:22;49.35;;;38.25;;
39872;SDS011;25545;48.854;9.292;2022-08-19T14:22:52;50.53;;;39.53;;
39872;SDS011;25545;48.854;9.292;2022-08-19T14:25:20;50.17;;;37.38;;
39872;SDS011;25545;48.854;9.292;2022-08-19T14:27:49;58.88;;;40.75;;
39872;SDS011;25545;48.854;9.292;2022-08-19T14:30:18;50.22;;;39.95;;
39872;SDS011;25545;48.854;9.292;2022-08-19T14:32:46;47.95;;;38.30;;
39872;SDS011;25545;48.854;9.292;2022-08-19T14:35:14;54.92;;;40.55;;
39872;SDS011;25545;48.854;9.292;2022-08-19T14:37:42;55.25;;;40.95;;
39872;SDS011;25545;48.854;9.292;2022-08-19T14:40:22;54.53;;;39.08;;
39872;SDS011;25545;48.854;9.292;2022-08-19T14:42:53;54.40;;;39.60;;
39872;SDS011;25545;48.854;9.292;2022-08-19T14:47:55;48.20;;;37.35;;
39872;SDS011;25545;48.854;9.292;2022-08-19T14:50:22;47.67;;;38.75;;
39872;SDS011;25545;48.854;9.292;2022-08-19T14:52:49;47.67;;;37.55;;
39872;SDS011;25545;48.854;9.292;2022-08-19T14:55:16;55.03;;;39.60;;